Aérodrome :
LOGIN :

S'inscrire | Disclaimer

   EN    FR    IT 

 










Légende :    VFR   VFR Marginal   IFR   IFR Intensif   IFR Très Intensif
Visi : 
Plafond : 
>= 8 km
>= 3000ft
5 à 8 km
1000 à 3000 ft
1500m à 5 km
500 à 1000 ft
800 à 1500m
200 à 500 ft
< 800m
< 200 ft
Symboles :   Orages  Brouillard  Fortes neiges  Fortes précipitations  Vent > 20 kt
SIGMETs :   Divers  Orages  Givrage  Turbulence  Onde Orograph.  Cendres Volcan.






- Altitude de l'aérodrome : 82 ft
- Code IATA : AAR


EKAH - Aarhus Tirstrup

DERNIER METAR :
  • 131350Z AUTO 12006KT 070V200 9999NDV NCD 26/12 Q1018

METARs EXPIRÉS :
  • 131320Z AUTO 14007KT 070V180 9999NDV NCD 26/12 Q1018
  • 131250Z AUTO 15006KT 110V210 9999NDV NCD 27/12 Q1018
  • 131220Z AUTO 12006KT 080V170 9999NDV NCD 26/12 Q1018
  • 131150Z AUTO 12006KT 070V170 9999NDV NCD 26/12 Q1018
  • 131120Z AUTO 13005KT 090V180 9999NDV NCD 25/13 Q1018

TAF TAF EKAH
Valide du 13 à 12h jusqu'au 14 à 12h UTC


131105Z 1312/1412 12005KT CAVOK
PROB40 1402/1405 3000 BR BCFG



MET'MAP, la Météo Aéronautique d'un coup d'oeil ! - Copyright ORBIFLY Décembre 2007 - Disclaimer

ORBIFLY MET'MAP TEAM :

Programmation & Développement : Alexandra Zaïnal
Sur une idée originale de : Baudouin d'Aumeries
Assistance à la programmation : Marc-Olivier Méhu
Soutien technique & logistique : Manuel Goepfert

Contact : metmap@orbifly.com




SOURCES & CREDITS :

   NOAA